S C — FGF7634 — position and weather

sailwx.info

Track history (hours):
 
Tides and Currents Weather Stations Pressure Air Temp Water Temp Dewpoint Dewpoint Depression Visibility Wind Speed Wind Dir Waves Ship Positions

S C

Last reported at 2017-Feb-22 08:33 UTC. Time now 2017-Feb-22 10:54 UTC.
Position N 49°29' E 000°07'.

; draft 1 m.

Type: Pilot. MMSI: 227001820.

Date/timePositionNaut miles runAvg speedWind from/ knotsBaromVisibWave heightAir tempDewpointWater temp
2017-Feb-22 08:33N 49°29' E 000°07'8 7.9
2017-Feb-22 07:33N 49°31' W 000°05'8 7.7
2017-Feb-22 06:33N 49°29' E 000°07'9 8.5
2017-Feb-22 05:33N 49°32' W 000°06'9 8.5
2017-Feb-22 04:33N 49°29' E 000°07'1 1.0
2017-Feb-22 03:34N 49°29' E 000°05'1 1.0
2017-Feb-22 02:33N 49°29' E 000°07'0 0.0
2017-Feb-22 01:33N 49°29' E 000°07'0 0.0
2017-Feb-22 00:33N 49°29' E 000°07'3 3.5
2017-Feb-21 23:33N 49°30' E 000°02'3 3.4
2017-Feb-21 22:33N 49°29' E 000°07'0 0.0
2017-Feb-21 21:33N 49°29' E 000°07'0 0.0
2017-Feb-21 20:33N 49°29' E 000°07'0 0.0
2017-Feb-21 19:33N 49°29' E 000°07'4 4.3
2017-Feb-21 18:33N 49°31' E 000°01'4 4.3
2017-Feb-21 17:33N 49°29' E 000°07'1 0.9
2017-Feb-21 16:33N 49°29' E 000°05'1 0.9
2017-Feb-21 15:33N 49°29' E 000°07'0 0.0
2017-Feb-21 14:33N 49°29' E 000°07'4 3.6
2017-Feb-21 13:33N 49°29' E 000°01'4 3.6
2017-Feb-21 12:33N 49°29' E 000°07'7 6.6
2017-Feb-21 11:34N 49°31' W 000°03'7 6.6
2017-Feb-21 10:33N 49°29' E 000°07'9 9.1
2017-Feb-21 09:33N 49°31' W 000°07'9 9.1
2017-Feb-21 08:34N 49°29' E 000°07'0 0.1
2017-Feb-21 07:34N 49°29' E 000°07'4 3.7
2017-Feb-21 06:33N 49°31' E 000°02'4 3.7
2017-Feb-21 05:34N 49°29' E 000°07'7 7.0
2017-Feb-21 04:34N 49°31' W 000°04'6 5.8
2017-Feb-21 03:33N 49°29' E 000°05'5 5.2
2017-Feb-21 02:34N 49°31' W 000°03'3 3.3
2017-Feb-21 01:34N 49°30' E 000°02'3 3.0
2017-Feb-21 00:33N 49°29' E 000°07'3 2.6
2017-Feb-20 23:33N 49°30' E 000°03'3 2.6
2017-Feb-20 22:33N 49°29' E 000°07'0 0.0
2017-Feb-20 21:33N 49°29' E 000°07'0 0.0
2017-Feb-20 20:34N 49°29' E 000°07'7 7.1
2017-Feb-20 19:33N 49°31' W 000°04'7 7.1
2017-Feb-20 18:33N 49°29' E 000°07'0 0.0
2017-Feb-20 17:33N 49°29' E 000°07'0 0.1
2017-Feb-20 16:33N 49°29' E 000°07'0 0.1
2017-Feb-20 15:33N 49°29' E 000°07'0 0.0
2017-Feb-20 14:33N 49°29' E 000°07'1110.8
2017-Feb-20 13:33N 49°32' W 000°09'1110.8
2017-Feb-20 12:34N 49°29' E 000°07'0 0.0
2017-Feb-20 11:34N 49°29' E 000°07'9 9.0
2017-Feb-20 10:34N 49°32' W 000°06'7 7.3
2017-Feb-20 09:33N 49°29' E 000°04'1 1.3
2017-Feb-20 08:33N 49°29' E 000°06'0 0.4
2017-Feb-20 07:33N 49°29' E 000°07'0 0.0
2017-Feb-20 06:33N 49°29' E 000°07'0 0.0
2017-Feb-20 05:33N 49°29' E 000°07'1 1.2
2017-Feb-20 04:34N 49°29' E 000°05'1 1.2
2017-Feb-20 03:33N 49°29' E 000°07'5 4.6
2017-Feb-20 02:34N 49°30' W 000°00'5 4.6
2017-Feb-20 01:34N 49°29' E 000°07'0 0.0
2017-Feb-20 00:34N 49°29' E 000°07'3 2.6
2017-Feb-19 23:34N 49°30' E 000°03'5 5.2
2017-Feb-19 22:34N 49°31' W 000°05'8 7.8
2017-Feb-19 21:33N 49°29' E 000°07'0 0.0
2017-Feb-19 20:33N 49°29' E 000°07'2 1.9
2017-Feb-19 19:34N 49°29' E 000°04'2 1.9
2017-Feb-19 18:33N 49°29' E 000°07'0 0.0
2017-Feb-19 17:33N 49°29' E 000°07'0 0.0
2017-Feb-19 16:33N 49°29' E 000°07'0 0.0
2017-Feb-19 15:33N 49°29' E 000°07'0 0.0
2017-Feb-19 14:34N 49°29' E 000°07'1 1.1
2017-Feb-19 13:33N 49°29' E 000°05'1 1.1
2017-Feb-19 12:33N 49°29' E 000°07'0 0.1
2017-Feb-19 11:34N 49°29' E 000°07'8 7.7
2017-Feb-19 10:34N 49°31' W 000°05'8 7.7
2017-Feb-19 09:33N 49°29' E 000°07'1 0.7
2017-Feb-19 08:33N 49°29' E 000°06'7 7.1
2017-Feb-19 07:33N 49°31' W 000°05'8 7.7
2017-Feb-19 06:33N 49°29' E 000°07'0 0.0
2017-Feb-19 05:34N 49°29' E 000°07'1 0.8
2017-Feb-19 04:34N 49°29' E 000°05'1 0.7
2017-Feb-19 03:34N 49°29' E 000°07'2 2.2
2017-Feb-19 02:33N 49°30' E 000°03'2 2.3
2017-Feb-19 01:33N 49°29' E 000°07'0 0.0
2017-Feb-19 00:33N 49°29' E 000°07'0 0.0
2017-Feb-18 23:33N 49°29' E 000°07'7 6.6
2017-Feb-18 22:33N 49°31' W 000°03'7 6.6
2017-Feb-18 21:33N 49°29' E 000°07'0 0.0
2017-Feb-18 20:34N 49°29' E 000°07'6 5.6
2017-Feb-18 19:33N 49°30' W 000°02'6 5.6
2017-Feb-18 18:34N 49°29' E 000°07'0 0.0
2017-Feb-18 17:34N 49°29' E 000°07'4 3.8
2017-Feb-18 16:33N 49°30' E 000°01'2 1.6
2017-Feb-18 15:33N 49°30' E 000°03'2 2.0
2017-Feb-18 14:33N 49°30' E 000°01'4 3.6
2017-Feb-18 13:34N 49°31' W 000°05'8 7.8
2017-Feb-18 12:33N 49°29' E 000°07'1 0.6
2017-Feb-18 11:33N 49°29' E 000°06'1 0.6
2017-Feb-18 10:33N 49°29' E 000°07'0 0.0
2017-Feb-18 09:33N 49°29' E 000°07'0 0.0
2017-Feb-18 08:33N 49°29' E 000°07'0 0.1
2017-Feb-18 07:33N 49°29' E 000°07'4 4.1
2017-Feb-18 06:33N 49°31' E 000°01'4 4.2
2017-Feb-18 05:33N 49°29' E 000°07'1 1.2
2017-Feb-18 04:33N 49°29' E 000°05'1 1.1
2017-Feb-18 03:33N 49°29' E 000°07'0 0.0
2017-Feb-18 02:33N 49°29' E 000°07'0 0.0
2017-Feb-18 01:33N 49°29' E 000°07'3 3.2
2017-Feb-18 00:34N 49°30' E 000°02'3 3.2
2017-Feb-17 23:33N 49°29' E 000°07'0 0.0
2017-Feb-17 22:33N 49°29' E 000°07'0 0.0
2017-Feb-17 21:33N 49°29' E 000°07'0 0.0
2017-Feb-17 20:33N 49°29' E 000°07'0 0.0
2017-Feb-17 19:33N 49°29' E 000°07'0 0.3
2017-Feb-17 18:33N 49°29' E 000°06'0 0.3
2017-Feb-17 17:33N 49°29' E 000°07'4 3.6
2017-Feb-17 16:33N 49°30' E 000°02'4 3.6
2017-Feb-17 15:33N 49°29' E 000°07'1 1.0
2017-Feb-17 14:33N 49°29' E 000°05'7 6.6
2017-Feb-17 13:33N 49°31' W 000°04'8 7.7
2017-Feb-17 12:34N 49°29' E 000°07'7 7.5
2017-Feb-17 11:33N 49°35' W 000°01'5 4.8
2017-Feb-17 10:33N 49°31' W 000°06'8 8.3
2017-Feb-17 09:33N 49°29' E 000°07'1 0.8
2017-Feb-17 08:33N 49°29' E 000°05'7 7.2
2017-Feb-17 07:33N 49°31' W 000°05'8 8.0
2017-Feb-17 06:33N 49°29' E 000°07'0 0.1
2017-Feb-17 05:33N 49°29' E 000°07'0 0.0
2017-Feb-17 04:33N 49°29' E 000°07'0 0.0
2017-Feb-17 03:33N 49°29' E 000°07'0 0.0
2017-Feb-17 02:33N 49°29' E 000°07'6 6.3
2017-Feb-17 01:33N 49°30' W 000°03'5 5.2
2017-Feb-17 00:33N 49°29' E 000°05'1 1.1
2017-Feb-16 23:34N 49°29' E 000°07'9 8.6
2017-Feb-16 22:33N 49°31' W 000°06'9 8.6
2017-Feb-16 21:33N 49°29' E 000°07'0 0.4
2017-Feb-16 20:33N 49°29' E 000°06'0 0.2
2017-Feb-16 19:33N 49°29' E 000°07'0 0.1
2017-Feb-16 18:33N 49°29' E 000°07'0 0.0
2017-Feb-16 17:33N 49°29' E 000°07'9 8.6
2017-Feb-16 16:34N 49°31' W 000°06'9 8.6
2017-Feb-16 15:33N 49°29' E 000°07'10 9.6
2017-Feb-16 14:33N 49°31' W 000°08'10 9.6
2017-Feb-16 13:33N 49°29' E 000°07'0 0.0
2017-Feb-16 12:33N 49°29' E 000°07'0 0.3
2017-Feb-16 11:34N 49°29' E 000°06'5 5.4
2017-Feb-16 10:34N 49°31' W 000°02'6 5.7
2017-Feb-16 09:33N 49°29' E 000°07'0 0.0
2017-Feb-16 08:33N 49°29' E 000°07'0 0.0
2017-Feb-16 07:33N 49°29' E 000°07'0 0.0
2017-Feb-16 06:33N 49°29' E 000°07'0 0.0
2017-Feb-16 05:33N 49°29' E 000°07'0 0.0
2017-Feb-16 04:33N 49°29' E 000°07'1 0.9
2017-Feb-16 03:33N 49°29' E 000°05'1 0.9
2017-Feb-16 02:34N 49°29' E 000°07'6 6.4
2017-Feb-16 01:33N 49°31' W 000°03'6 6.4
2017-Feb-16 00:34N 49°29' E 000°07'0 0.0
2017-Feb-15 23:34N 49°29' E 000°07'3 3.0
2017-Feb-15 22:33N 49°30' E 000°02'3 3.0
2017-Feb-15 21:33N 49°29' E 000°07'0 0.0
2017-Feb-15 20:33N 49°29' E 000°07'0 0.3
2017-Feb-15 19:33N 49°29' E 000°06'0 0.3
2017-Feb-15 18:33N 49°29' E 000°07'0 0.0
2017-Feb-15 17:33N 49°29' E 000°07'0 0.0
2017-Feb-15 16:33N 49°29' E 000°07'0 0.0
2017-Feb-15 15:33N 49°29' E 000°07'0 0.0
2017-Feb-15 14:33N 49°29' E 000°07'0 0.0
2017-Feb-15 13:33N 49°29' E 000°07'0 0.0
2017-Feb-15 12:33N 49°29' E 000°07'0 0.0
2017-Feb-15 11:33N 49°29' E 000°07'1 0.6
2017-Feb-15 10:33N 49°29' E 000°06'1 0.6
2017-Feb-15 09:33N 49°29' E 000°07'0 0.0
2017-Feb-15 08:33N 49°29' E 000°07'0 0.0
2017-Feb-15 07:33N 49°29' E 000°07'0 0.0
2017-Feb-15 06:33N 49°29' E 000°07'0 0.0
2017-Feb-15 05:33N 49°29' E 000°07'0 0.0
2017-Feb-15 04:33N 49°29' E 000°07'0 0.0
2017-Feb-15 03:33N 49°29' E 000°07'6 6.0
2017-Feb-15 02:34N 49°30' W 000°02'6 6.0
2017-Feb-15 01:33N 49°29' E 000°07'2 1.7
2017-Feb-15 00:33N 49°29' E 000°04'6 6.2
2017-Feb-14 23:34N 49°31' W 000°05'8 7.7
2017-Feb-14 22:33N 49°29' E 000°07'0 0.0
2017-Feb-14 21:33N 49°29' E 000°07'2 2.5
2017-Feb-14 20:33N 49°30' E 000°03'2 2.5
2017-Feb-14 19:34N 49°29' E 000°07'4 3.9
2017-Feb-14 18:33N 49°30' E 000°01'2 2.0
2017-Feb-14 17:33N 49°31' W 000°02'6 5.9
2017-Feb-14 16:33N 49°29' E 000°07'0 0.0
2017-Feb-14 15:33N 49°29' E 000°07'0 0.0
2017-Feb-14 14:33N 49°29' E 000°07'0 0.0
2017-Feb-14 13:33N 49°29' E 000°07'0 0.0
2017-Feb-14 12:33N 49°29' E 000°07'1 1.4
2017-Feb-14 11:33N 49°29' E 000°05'1 1.1
2017-Feb-14 10:34N 49°29' E 000°06'0 0.3
2017-Feb-14 09:33N 49°29' E 000°07'0 0.0
2017-Feb-14 08:33N 49°29' E 000°07'3 2.9
2017-Feb-14 07:33N 49°30' E 000°02'3 2.9
2017-Feb-14 06:33N 49°29' E 000°07'7 6.8
2017-Feb-14 05:33N 49°31' W 000°03'7 6.6
2017-Feb-14 04:33N 49°29' E 000°06'0 0.4
2017-Feb-14 03:33N 49°29' E 000°06'1 0.6
2017-Feb-14 02:33N 49°29' E 000°07'0 0.0
2017-Feb-14 01:33N 49°29' E 000°07'0 0.0
2017-Feb-14 00:33N 49°29' E 000°07'0 0.0
2017-Feb-13 23:33N 49°29' E 000°07'0 0.0
2017-Feb-13 22:33N 49°29' E 000°07'0 0.0
2017-Feb-13 21:33N 49°29' E 000°07'5 5.1
2017-Feb-13 20:34N 49°30' W 000°01'5 5.1
2017-Feb-13 19:34N 49°29' E 000°07'0 0.0
2017-Feb-13 18:33N 49°29' E 000°07'0 0.0
2017-Feb-13 17:33N 49°29' E 000°07'0 0.0
2017-Feb-13 16:33N 49°29' E 000°07'0 0.0
2017-Feb-13 15:34N 49°29' E 000°07'0 0.0
2017-Feb-13 14:33N 49°29' E 000°07'0 0.0
2017-Feb-13 13:33N 49°29' E 000°07'0 0.0
2017-Feb-13 12:33N 49°29' E 000°07'1 0.6
2017-Feb-13 11:33N 49°28' E 000°07'1 0.6
2017-Feb-13 10:33N 49°29' E 000°07'0 0.0
2017-Feb-13 09:33N 49°29' E 000°07'0 0.0
2017-Feb-13 08:33N 49°29' E 000°07'3 2.7
2017-Feb-13 07:34N 49°30' E 000°03'3 2.7
2017-Feb-13 06:33N 49°29' E 000°07'0 0.0
2017-Feb-13 05:33N 49°29' E 000°07'0 0.0
2017-Feb-13 04:33N 49°29' E 000°07'2 1.6
2017-Feb-13 03:33N 49°29' E 000°04'1 0.7
2017-Feb-13 02:34N 49°29' E 000°05'1 0.9
2017-Feb-13 01:33N 49°29' E 000°07'1 0.9
2017-Feb-13 00:33N 49°29' E 000°05'1 0.9
2017-Feb-12 23:33N 49°29' E 000°07'0 0.0
2017-Feb-12 22:33N 49°29' E 000°07'0 0.0
2017-Feb-12 21:34N 49°29' E 000°07'0 0.0
2017-Feb-12 20:34N 49°29' E 000°07'0 0.0
2017-Feb-12 19:33N 49°29' E 000°07'0 0.0
2017-Feb-12 18:34N 49°29' E 000°07'0 0.0
2017-Feb-12 17:34N 49°29' E 000°07'0 0.0
2017-Feb-12 16:34N 49°29' E 000°07'0 0.0
2017-Feb-12 15:33N 49°29' E 000°07'0 0.0
2017-Feb-12 14:34N 49°29' E 000°07'5 5.0
2017-Feb-12 13:33N 49°30' W 000°01'5 5.0
2017-Feb-12 12:33N 49°29' E 000°07'1 1.4
2017-Feb-12 11:33N 49°29' E 000°05'1 1.4
2017-Feb-12 10:33N 49°29' E 000°07'0 0.0
2017-Feb-12 09:33N 49°29' E 000°07'0 0.0
2017-Feb-12 08:33N 49°29' E 000°07'  
Track history (hours):
 
Tides and Currents Weather Stations Pressure Air Temp Water Temp Dewpoint Dewpoint Depression Visibility Wind Speed Wind Dir Waves Ship Positions

S C

Last reported at 2017-Feb-22 08:33 UTC. Time now 2017-Feb-22 10:54 UTC.
Position N 49°29' E 000°07'.

; draft 1 m.

Type: Pilot. MMSI: 227001820.

Date/timePositionNaut miles runAvg speedWind from/ knotsBaromVisibWave heightAir tempDewpointWater temp
2017-Feb-22 08:33N 49°29' E 000°07'8 7.9
2017-Feb-22 07:33N 49°31' W 000°05'8 7.7
2017-Feb-22 06:33N 49°29' E 000°07'9 8.5
2017-Feb-22 05:33N 49°32' W 000°06'9 8.5
2017-Feb-22 04:33N 49°29' E 000°07'1 1.0
2017-Feb-22 03:34N 49°29' E 000°05'1 1.0
2017-Feb-22 02:33N 49°29' E 000°07'0 0.0
2017-Feb-22 01:33N 49°29' E 000°07'0 0.0
2017-Feb-22 00:33N 49°29' E 000°07'3 3.5
2017-Feb-21 23:33N 49°30' E 000°02'3 3.4
2017-Feb-21 22:33N 49°29' E 000°07'0 0.0
2017-Feb-21 21:33N 49°29' E 000°07'0 0.0
2017-Feb-21 20:33N 49°29' E 000°07'0 0.0
2017-Feb-21 19:33N 49°29' E 000°07'4 4.3
2017-Feb-21 18:33N 49°31' E 000°01'4 4.3
2017-Feb-21 17:33N 49°29' E 000°07'1 0.9
2017-Feb-21 16:33N 49°29' E 000°05'1 0.9
2017-Feb-21 15:33N 49°29' E 000°07'0 0.0
2017-Feb-21 14:33N 49°29' E 000°07'4 3.6
2017-Feb-21 13:33N 49°29' E 000°01'4 3.6
2017-Feb-21 12:33N 49°29' E 000°07'7 6.6
2017-Feb-21 11:34N 49°31' W 000°03'7 6.6
2017-Feb-21 10:33N 49°29' E 000°07'9 9.1
2017-Feb-21 09:33N 49°31' W 000°07'9 9.1
2017-Feb-21 08:34N 49°29' E 000°07'0 0.1
2017-Feb-21 07:34N 49°29' E 000°07'4 3.7
2017-Feb-21 06:33N 49°31' E 000°02'4 3.7
2017-Feb-21 05:34N 49°29' E 000°07'7 7.0
2017-Feb-21 04:34N 49°31' W 000°04'6 5.8
2017-Feb-21 03:33N 49°29' E 000°05'5 5.2
2017-Feb-21 02:34N 49°31' W 000°03'3 3.3
2017-Feb-21 01:34N 49°30' E 000°02'3 3.0
2017-Feb-21 00:33N 49°29' E 000°07'3 2.6
2017-Feb-20 23:33N 49°30' E 000°03'3 2.6
2017-Feb-20 22:33N 49°29' E 000°07'0 0.0
2017-Feb-20 21:33N 49°29' E 000°07'0 0.0
2017-Feb-20 20:34N 49°29' E 000°07'7 7.1
2017-Feb-20 19:33N 49°31' W 000°04'7 7.1
2017-Feb-20 18:33N 49°29' E 000°07'0 0.0
2017-Feb-20 17:33N 49°29' E 000°07'0 0.1
2017-Feb-20 16:33N 49°29' E 000°07'0 0.1
2017-Feb-20 15:33N 49°29' E 000°07'0 0.0
2017-Feb-20 14:33N 49°29' E 000°07'1110.8
2017-Feb-20 13:33N 49°32' W 000°09'1110.8
2017-Feb-20 12:34N 49°29' E 000°07'0 0.0
2017-Feb-20 11:34N 49°29' E 000°07'9 9.0
2017-Feb-20 10:34N 49°32' W 000°06'7 7.3
2017-Feb-20 09:33N 49°29' E 000°04'1 1.3
2017-Feb-20 08:33N 49°29' E 000°06'0 0.4
2017-Feb-20 07:33N 49°29' E 000°07'0 0.0
2017-Feb-20 06:33N 49°29' E 000°07'0 0.0
2017-Feb-20 05:33N 49°29' E 000°07'1 1.2
2017-Feb-20 04:34N 49°29' E 000°05'1 1.2
2017-Feb-20 03:33N 49°29' E 000°07'5 4.6
2017-Feb-20 02:34N 49°30' W 000°00'5 4.6
2017-Feb-20 01:34N 49°29' E 000°07'0 0.0
2017-Feb-20 00:34N 49°29' E 000°07'3 2.6
2017-Feb-19 23:34N 49°30' E 000°03'5 5.2
2017-Feb-19 22:34N 49°31' W 000°05'8 7.8
2017-Feb-19 21:33N 49°29' E 000°07'0 0.0
2017-Feb-19 20:33N 49°29' E 000°07'2 1.9
2017-Feb-19 19:34N 49°29' E 000°04'2 1.9
2017-Feb-19 18:33N 49°29' E 000°07'0 0.0
2017-Feb-19 17:33N 49°29' E 000°07'0 0.0
2017-Feb-19 16:33N 49°29' E 000°07'0 0.0
2017-Feb-19 15:33N 49°29' E 000°07'0 0.0
2017-Feb-19 14:34N 49°29' E 000°07'1 1.1
2017-Feb-19 13:33N 49°29' E 000°05'1 1.1
2017-Feb-19 12:33N 49°29' E 000°07'0 0.1
2017-Feb-19 11:34N 49°29' E 000°07'8 7.7
2017-Feb-19 10:34N 49°31' W 000°05'8 7.7
2017-Feb-19 09:33N 49°29' E 000°07'1 0.7
2017-Feb-19 08:33N 49°29' E 000°06'7 7.1
2017-Feb-19 07:33N 49°31' W 000°05'8 7.7
2017-Feb-19 06:33N 49°29' E 000°07'0 0.0
2017-Feb-19 05:34N 49°29' E 000°07'1 0.8
2017-Feb-19 04:34N 49°29' E 000°05'1 0.7
2017-Feb-19 03:34N 49°29' E 000°07'2 2.2
2017-Feb-19 02:33N 49°30' E 000°03'2 2.3
2017-Feb-19 01:33N 49°29' E 000°07'0 0.0
2017-Feb-19 00:33N 49°29' E 000°07'0 0.0
2017-Feb-18 23:33N 49°29' E 000°07'7 6.6
2017-Feb-18 22:33N 49°31' W 000°03'7 6.6
2017-Feb-18 21:33N 49°29' E 000°07'0 0.0
2017-Feb-18 20:34N 49°29' E 000°07'6 5.6
2017-Feb-18 19:33N 49°30' W 000°02'6 5.6
2017-Feb-18 18:34N 49°29' E 000°07'0 0.0
2017-Feb-18 17:34N 49°29' E 000°07'4 3.8
2017-Feb-18 16:33N 49°30' E 000°01'2 1.6
2017-Feb-18 15:33N 49°30' E 000°03'2 2.0
2017-Feb-18 14:33N 49°30' E 000°01'4 3.6
2017-Feb-18 13:34N 49°31' W 000°05'8 7.8
2017-Feb-18 12:33N 49°29' E 000°07'1 0.6
2017-Feb-18 11:33N 49°29' E 000°06'1 0.6
2017-Feb-18 10:33N 49°29' E 000°07'0 0.0
2017-Feb-18 09:33N 49°29' E 000°07'0 0.0
2017-Feb-18 08:33N 49°29' E 000°07'0 0.1
2017-Feb-18 07:33N 49°29' E 000°07'4 4.1
2017-Feb-18 06:33N 49°31' E 000°01'4 4.2
2017-Feb-18 05:33N 49°29' E 000°07'1 1.2
2017-Feb-18 04:33N 49°29' E 000°05'1 1.1
2017-Feb-18 03:33N 49°29' E 000°07'0 0.0
2017-Feb-18 02:33N 49°29' E 000°07'0 0.0
2017-Feb-18 01:33N 49°29' E 000°07'3 3.2
2017-Feb-18 00:34N 49°30' E 000°02'3 3.2
2017-Feb-17 23:33N 49°29' E 000°07'0 0.0
2017-Feb-17 22:33N 49°29' E 000°07'0 0.0
2017-Feb-17 21:33N 49°29' E 000°07'0 0.0
2017-Feb-17 20:33N 49°29' E 000°07'0 0.0
2017-Feb-17 19:33N 49°29' E 000°07'0 0.3
2017-Feb-17 18:33N 49°29' E 000°06'0 0.3
2017-Feb-17 17:33N 49°29' E 000°07'4 3.6
2017-Feb-17 16:33N 49°30' E 000°02'4 3.6
2017-Feb-17 15:33N 49°29' E 000°07'1 1.0
2017-Feb-17 14:33N 49°29' E 000°05'7 6.6
2017-Feb-17 13:33N 49°31' W 000°04'8 7.7
2017-Feb-17 12:34N 49°29' E 000°07'7 7.5
2017-Feb-17 11:33N 49°35' W 000°01'5 4.8
2017-Feb-17 10:33N 49°31' W 000°06'8 8.3
2017-Feb-17 09:33N 49°29' E 000°07'1 0.8
2017-Feb-17 08:33N 49°29' E 000°05'7 7.2
2017-Feb-17 07:33N 49°31' W 000°05'8 8.0
2017-Feb-17 06:33N 49°29' E 000°07'0 0.1
2017-Feb-17 05:33N 49°29' E 000°07'0 0.0
2017-Feb-17 04:33N 49°29' E 000°07'0 0.0
2017-Feb-17 03:33N 49°29' E 000°07'0 0.0
2017-Feb-17 02:33N 49°29' E 000°07'6 6.3
2017-Feb-17 01:33N 49°30' W 000°03'5 5.2
2017-Feb-17 00:33N 49°29' E 000°05'1 1.1
2017-Feb-16 23:34N 49°29' E 000°07'9 8.6
2017-Feb-16 22:33N 49°31' W 000°06'9 8.6
2017-Feb-16 21:33N 49°29' E 000°07'0 0.4
2017-Feb-16 20:33N 49°29' E 000°06'0 0.2
2017-Feb-16 19:33N 49°29' E 000°07'0 0.1
2017-Feb-16 18:33N 49°29' E 000°07'0 0.0
2017-Feb-16 17:33N 49°29' E 000°07'9 8.6
2017-Feb-16 16:34N 49°31' W 000°06'9 8.6
2017-Feb-16 15:33N 49°29' E 000°07'10 9.6
2017-Feb-16 14:33N 49°31' W 000°08'10 9.6
2017-Feb-16 13:33N 49°29' E 000°07'0 0.0
2017-Feb-16 12:33N 49°29' E 000°07'0 0.3
2017-Feb-16 11:34N 49°29' E 000°06'5 5.4
2017-Feb-16 10:34N 49°31' W 000°02'6 5.7
2017-Feb-16 09:33N 49°29' E 000°07'0 0.0
2017-Feb-16 08:33N 49°29' E 000°07'0 0.0
2017-Feb-16 07:33N 49°29' E 000°07'0 0.0
2017-Feb-16 06:33N 49°29' E 000°07'0 0.0
2017-Feb-16 05:33N 49°29' E 000°07'0 0.0
2017-Feb-16 04:33N 49°29' E 000°07'1 0.9
2017-Feb-16 03:33N 49°29' E 000°05'1 0.9
2017-Feb-16 02:34N 49°29' E 000°07'6 6.4
2017-Feb-16 01:33N 49°31' W 000°03'6 6.4
2017-Feb-16 00:34N 49°29' E 000°07'0 0.0
2017-Feb-15 23:34N 49°29' E 000°07'3 3.0
2017-Feb-15 22:33N 49°30' E 000°02'3 3.0
2017-Feb-15 21:33N 49°29' E 000°07'0 0.0
2017-Feb-15 20:33N 49°29' E 000°07'0 0.3
2017-Feb-15 19:33N 49°29' E 000°06'0 0.3
2017-Feb-15 18:33N 49°29' E 000°07'0 0.0
2017-Feb-15 17:33N 49°29' E 000°07'0 0.0
2017-Feb-15 16:33N 49°29' E 000°07'0 0.0
2017-Feb-15 15:33N 49°29' E 000°07'0 0.0
2017-Feb-15 14:33N 49°29' E 000°07'0 0.0
2017-Feb-15 13:33N 49°29' E 000°07'0 0.0
2017-Feb-15 12:33N 49°29' E 000°07'0 0.0
2017-Feb-15 11:33N 49°29' E 000°07'1 0.6
2017-Feb-15 10:33N 49°29' E 000°06'1 0.6
2017-Feb-15 09:33N 49°29' E 000°07'0 0.0
2017-Feb-15 08:33N 49°29' E 000°07'0 0.0
2017-Feb-15 07:33N 49°29' E 000°07'0 0.0
2017-Feb-15 06:33N 49°29' E 000°07'0 0.0
2017-Feb-15 05:33N 49°29' E 000°07'0 0.0
2017-Feb-15 04:33N 49°29' E 000°07'0 0.0
2017-Feb-15 03:33N 49°29' E 000°07'6 6.0
2017-Feb-15 02:34N 49°30' W 000°02'6 6.0
2017-Feb-15 01:33N 49°29' E 000°07'2 1.7
2017-Feb-15 00:33N 49°29' E 000°04'6 6.2
2017-Feb-14 23:34N 49°31' W 000°05'8 7.7
2017-Feb-14 22:33N 49°29' E 000°07'0 0.0
2017-Feb-14 21:33N 49°29' E 000°07'2 2.5
2017-Feb-14 20:33N 49°30' E 000°03'2 2.5
2017-Feb-14 19:34N 49°29' E 000°07'4 3.9
2017-Feb-14 18:33N 49°30' E 000°01'2 2.0
2017-Feb-14 17:33N 49°31' W 000°02'6 5.9
2017-Feb-14 16:33N 49°29' E 000°07'0 0.0
2017-Feb-14 15:33N 49°29' E 000°07'0 0.0
2017-Feb-14 14:33N 49°29' E 000°07'0 0.0
2017-Feb-14 13:33N 49°29' E 000°07'0 0.0
2017-Feb-14 12:33N 49°29' E 000°07'1 1.4
2017-Feb-14 11:33N 49°29' E 000°05'1 1.1
2017-Feb-14 10:34N 49°29' E 000°06'0 0.3
2017-Feb-14 09:33N 49°29' E 000°07'0 0.0
2017-Feb-14 08:33N 49°29' E 000°07'3 2.9
2017-Feb-14 07:33N 49°30' E 000°02'3 2.9
2017-Feb-14 06:33N 49°29' E 000°07'7 6.8
2017-Feb-14 05:33N 49°31' W 000°03'7 6.6
2017-Feb-14 04:33N 49°29' E 000°06'0 0.4
2017-Feb-14 03:33N 49°29' E 000°06'1 0.6
2017-Feb-14 02:33N 49°29' E 000°07'0 0.0
2017-Feb-14 01:33N 49°29' E 000°07'0 0.0
2017-Feb-14 00:33N 49°29' E 000°07'0 0.0
2017-Feb-13 23:33N 49°29' E 000°07'0 0.0
2017-Feb-13 22:33N 49°29' E 000°07'0 0.0
2017-Feb-13 21:33N 49°29' E 000°07'5 5.1
2017-Feb-13 20:34N 49°30' W 000°01'5 5.1
2017-Feb-13 19:34N 49°29' E 000°07'0 0.0
2017-Feb-13 18:33N 49°29' E 000°07'0 0.0
2017-Feb-13 17:33N 49°29' E 000°07'0 0.0
2017-Feb-13 16:33N 49°29' E 000°07'0 0.0
2017-Feb-13 15:34N 49°29' E 000°07'0 0.0
2017-Feb-13 14:33N 49°29' E 000°07'0 0.0
2017-Feb-13 13:33N 49°29' E 000°07'0 0.0
2017-Feb-13 12:33N 49°29' E 000°07'1 0.6
2017-Feb-13 11:33N 49°28' E 000°07'1 0.6
2017-Feb-13 10:33N 49°29' E 000°07'0 0.0
2017-Feb-13 09:33N 49°29' E 000°07'0 0.0
2017-Feb-13 08:33N 49°29' E 000°07'3 2.7
2017-Feb-13 07:34N 49°30' E 000°03'3 2.7
2017-Feb-13 06:33N 49°29' E 000°07'0 0.0
2017-Feb-13 05:33N 49°29' E 000°07'0 0.0
2017-Feb-13 04:33N 49°29' E 000°07'2 1.6
2017-Feb-13 03:33N 49°29' E 000°04'1 0.7
2017-Feb-13 02:34N 49°29' E 000°05'1 0.9
2017-Feb-13 01:33N 49°29' E 000°07'1 0.9
2017-Feb-13 00:33N 49°29' E 000°05'1 0.9
2017-Feb-12 23:33N 49°29' E 000°07'0 0.0
2017-Feb-12 22:33N 49°29' E 000°07'0 0.0
2017-Feb-12 21:34N 49°29' E 000°07'0 0.0
2017-Feb-12 20:34N 49°29' E 000°07'0 0.0
2017-Feb-12 19:33N 49°29' E 000°07'0 0.0
2017-Feb-12 18:34N 49°29' E 000°07'0 0.0
2017-Feb-12 17:34N 49°29' E 000°07'0 0.0
2017-Feb-12 16:34N 49°29' E 000°07'0 0.0
2017-Feb-12 15:33N 49°29' E 000°07'0 0.0
2017-Feb-12 14:34N 49°29' E 000°07'5 5.0
2017-Feb-12 13:33N 49°30' W 000°01'5 5.0
2017-Feb-12 12:33N 49°29' E 000°07'1 1.4
2017-Feb-12 11:33N 49°29' E 000°05'1 1.4
2017-Feb-12 10:33N 49°29' E 000°07'0 0.0
2017-Feb-12 09:33N 49°29' E 000°07'0 0.0
2017-Feb-12 08:33N 49°29' E 000°07'  

Dump ship's entire track history